F5ZCE-1 Weather Reports


Display with metric or nautical units.
time (UTC)temp
F
wind
direction
speed
MPH
gust
MPH
rain 1hr
in
rain 24hr
in
rain mn
in
humidity
%
barometer
mb
20201027125201 49 221 18.0 29.0 0.00 0.00 0.00
20201027124703 49 204 19.0 27.0 0.00 0.00 0.00
20201027123700 48 198 17.0 27.0 0.00 0.00 0.00
20201027123157 49 181 16.0 21.0 0.00 0.00 0.00
20201027122659 49 218 18.0 26.0 0.00 0.00 0.00
20201027121656 48 184 17.0 23.0 0.00 0.00 0.00
20201027121154 49 181 18.0 23.0 0.00 0.00 0.00
20201027120653 49 210 19.0 30.0 0.00 0.00 0.00
20201027115653 48 211 19.0 27.0 0.00 0.00 0.00
20201027115152 49 215 18.0 26.0 0.00 0.00 0.00
20201027114651 49 188 18.0 28.0 0.00 0.00 0.00
20201027113656 49 224 18.0 26.0 0.00 0.00 0.00
20201027113158 49 219 18.0 26.0 0.00 0.00 0.00
20201027112650 49 200 20.0 27.0 0.00 0.00 0.00
20201027111648 48 190 18.0 27.0 0.00 0.00 0.00
20201027111146 48 197 18.0 25.0 0.00 0.00 0.00
20201027110650 48 203 18.0 28.0 0.00 0.00 0.00
20201027105649 48 212 16.0 23.0 0.00 0.00 0.00
20201027105144 48 186 16.0 23.0 0.00 0.00 0.00
20201027104646 48 187 16.0 24.0 0.00 0.00 0.00
20201027103637 47 210 15.0 20.0 0.00 0.00 0.00
20201027103134 48 207 17.0 23.0 0.00 0.00 0.00
20201027102636 47 187 17.0 22.0 0.00 0.00 0.00
20201027102133 47 208 16.0 20.0 0.00 0.00 0.00
20201027101637 47 200 13.0 18.0 0.00 0.00 0.00
20201027101130 47 201 16.0 21.0 0.00 0.00 0.00
20201027100631 47 179 15.0 22.0 0.00 0.00 0.00
20201027100138 46 201 15.0 22.0 0.00 0.00 0.00
20201027095629 46 204 15.0 22.0 0.00 0.00 0.00
20201027095130 46 198 15.0 23.0 0.00 0.00 0.00
20201027094631 46 208 15.0 22.0 0.00 0.00 0.00
20201027094127 46 207 16.0 20.0 0.00 0.00 0.00
20201027093629 46 195 15.0 19.0 0.00 0.00 0.00
20201027093126 46 193 17.0 23.0 0.00 0.00 0.00
20201027092627 46 188 15.0 20.0 0.00 0.00 0.00
20201027092125 46 179 14.0 19.0 0.00 0.00 0.00
20201027091625 46 207 14.0 19.0 0.00 0.00 0.00
20201027091132 46 211 14.0 18.0 0.00 0.00 0.00
20201027090624 46 214 13.0 18.0 0.00 0.00 0.00
20201027090124 46 183 15.0 19.0 0.00 0.00 0.00
20201027085621 46 208 14.0 20.0 0.00 0.00 0.00
20201027085119 46 201 14.0 18.0 0.00 0.00 0.00
20201027084621 45 200 13.0 19.0 0.00 0.00 0.00
20201027084122 46 203 14.0 20.0 0.00 0.00 0.00
20201027083624 46 200 14.0 19.0 0.00 0.00 0.00
20201027083118 46 198 15.0 21.0 0.00 0.00 0.00
20201027082618 46 190 14.0 20.0 0.00 0.00 0.00
20201027082117 46 158 14.0 20.0 0.00 0.00 0.00
20201027081617 45 193 14.0 19.0 0.00 0.00 0.00
20201027081117 46 197 14.0 19.0 0.00 0.00 0.00
20201027080651 45 208 14.0 22.0 0.00 0.00 0.00
20201027080625 45 208 14.0 22.0 0.00 0.00 0.00
20201027080123 46 200 13.0 19.0 0.00 0.00 0.00
20201027075615 45 221 14.0 20.0 0.00 0.00 0.00
20201027075112 45 188 14.0 18.0 0.00 0.00 0.00
20201027074612 46 205 15.0 19.0 0.00 0.00 0.00
20201027074113 46 211 13.0 18.0 0.00 0.00 0.00
20201027073612 46 187 14.0 20.0 0.00 0.00 0.00
20201027073111 46 214 14.0 20.0 0.00 0.00 0.00
20201027072614 45 205 12.0 16.0 0.00 0.00 0.00
20201027072111 46 225 12.0 16.0 0.00 0.00 0.00
20201027071614 45 200 14.0 20.0 0.00 0.00 0.00
20201027071117 45 200 14.0 19.0 0.00 0.00 0.00
20201027070616 45 198 13.0 19.0 0.00 0.00 0.00
20201027070109 46 200 12.0 16.0 0.00 0.00 0.00
20201027065606 46 188 12.0 16.0 0.00 0.00 0.00
20201027065107 45 211 12.0 16.0 0.00 0.00 0.00
20201027064605 45 219 12.0 15.0 0.00 0.00 0.00
20201027064105 45 208 12.0 18.0 0.00 0.00 0.00
20201027063604 45 188 12.0 17.0 0.00 0.00 0.00
20201027063107 45 191 11.0 16.0 0.00 0.00 0.00
20201027062605 45 195 10.0 17.0 0.00 0.00 0.00
20201027062103 45 198 10.0 15.0 0.00 0.00 0.00
20201027061602 45 217 10.0 13.0 0.00 0.00 0.00
20201027061104 45 197 9.0 13.0 0.00 0.00 0.00
20201027060608 45 198 10.0 14.0 0.00 0.00 0.00
20201027060101 45 187 11.0 15.0 0.00 0.00 0.00
20201027055608 45 172 11.0 15.0 0.00 0.00 0.00
20201027055100 45 200 11.0 16.0 0.00 0.00 0.00
20201027054611 44 194 10.0 14.0 0.00 0.00 0.00
20201027054058 45 198 10.0 14.0 0.00 0.00 0.00
20201027053603 45 214 11.0 16.0 0.00 0.00 0.00
20201027053059 44 194 11.0 16.0 0.00 0.00 0.00
20201027052554 44 219 11.0 16.0 0.00 0.00 0.00
20201027052103 44 215 11.0 14.0 0.00 0.00 0.00
20201027051553 44 218 11.0 16.0 0.00 0.00 0.00
20201027051057 44 215 12.0 16.0 0.00 0.00 0.00
20201027050608 44 204 12.0 18.0 0.00 0.00 0.00
20201027050054 44 207 12.0 19.0 0.00 0.00 0.00
20201027045553 44 200 12.0 18.0 0.00 0.00 0.00
20201027045054 44 177 11.0 14.0 0.00 0.00 0.00
20201027044553 44 186 11.0 15.0 0.00 0.00 0.00
20201027044055 44 186 10.0 12.0 0.00 0.00 0.00
20201027043552 44 169 10.0 13.0 0.00 0.00 0.00
20201027043049 45 203 10.0 13.0 0.00 0.00 0.00
20201027042549 45 204 11.0 14.0 0.00 0.00 0.00
20201027042049 45 211 11.0 14.0 0.00 0.00 0.00
20201027041548 45 208 11.0 15.0 0.00 0.00 0.00
20201027041052 45 204 10.0 12.0 0.00 0.00 0.00
20201027040553 44 207 10.0 15.0 0.00 0.00 0.00
20201027040049 45 219 11.0 14.0 0.00 0.00 0.00
20201027035549 45 186 12.0 15.0 0.00 0.00 0.00
20201027035047 45 203 12.0 19.0 0.00 0.00 0.00
20201027034548 45 210 11.0 16.0 0.00 0.00 0.00
20201027034047 44 207 10.0 16.0 0.00 0.00 0.00
20201027033547 44 203 12.0 15.0 0.00 0.00 0.00
20201027033048 45 193 11.0 14.0 0.00 0.00 0.00
20201027032546 45 198 11.0 15.0 0.00 0.00 0.00
20201027032044 44 207 10.0 14.0 0.00 0.00 0.00
20201027031548 44 194 10.0 13.0 0.00 0.00 0.00
20201027031044 45 167 10.0 12.0 0.00 0.00 0.00
20201027030542 45 207 10.0 12.0 0.00 0.00 0.00
20201027030050 45 205 10.0 13.0 0.00 0.00 0.00
20201027025544 45 210 9.0 11.0 0.00 0.00 0.00
20201027025045 45 183 10.0 12.0 0.00 0.00 0.00
20201027024546 45 228 9.0 13.0 0.00 0.00 0.00
20201027024046 45 219 10.0 14.0 0.00 0.00 0.00
20201027023540 45 219 9.0 13.0 0.00 0.00 0.00
20201027023044 45 208 11.0 15.0 0.00 0.00 0.00
20201027022541 45 208 10.0 14.0 0.00 0.00 0.00
20201027022040 45 222 11.0 17.0 0.00 0.00 0.00
20201027021540 45 221 9.0 12.0 0.00 0.00 0.00
20201027021044 45 221 11.0 15.0 0.00 0.00 0.00
20201027020539 45 207 11.0 17.0 0.00 0.00 0.00
20201027020041 45 221 10.0 14.0 0.00 0.00 0.00
20201027015538 45 225 10.0 14.0 0.00 0.00 0.00
20201027015039 45 212 9.0 14.0 0.00 0.00 0.00
20201027014539 45 201 9.0 12.0 0.00 0.00 0.00
20201027014049 45 211 9.0 12.0 0.00 0.00 0.00
20201027013542 45 207 10.0 18.0 0.00 0.00 0.00
20201027013040 45 200 9.0 12.0 0.00 0.00 0.00
20201027012538 45 197 9.0 11.0 0.00 0.00 0.00
20201027012037 45 203 8.0 11.0 0.00 0.00 0.00
20201027011536 45 203 9.0 13.0 0.00 0.00 0.00
20201027011037 45 205 9.0 11.0 0.00 0.00 0.00
20201027010535 45 194 9.0 11.0 0.00 0.00 0.00
20201027010037 45 219 9.0 11.0 0.00 0.00 0.00
20201027005537 46 205 9.0 12.0 0.00 0.00 0.00
20201027005034 45 215 8.0 10.0 0.00 0.00 0.00
20201027004533 45 212 9.0 11.0 0.00 0.00 0.00
20201027004033 45 233 9.0 14.0 0.00 0.00 0.00
20201027003534 45 210 8.0 11.0 0.00 0.00 0.00
20201027003045 45 225 9.0 12.0 0.00 0.00 0.00
20201027002529 44 215 8.0 10.0 0.00 0.00 0.00
20201027002029 45 208 9.0 12.0 0.00 0.00 0.00
20201027001550 45 194 9.0 11.0 0.00 0.00 0.00
20201027001033 45 191 9.0 11.0 0.00 0.00 0.00
20201027000527 45 188 9.0 12.0 0.00 0.00 0.00
20201027000034 45 201 10.0 12.0 0.00 0.00 0.00
20201026235526 45 215 9.0 13.0 0.00 0.00 0.00
20201026235027 45 205 9.0 12.0 0.00 0.00 0.00
20201026234526 45 211 10.0 13.0 0.00 0.00 0.00
20201026234029 45 208 10.0 12.0 0.00 0.00 0.00
20201026233525 46 198 9.0 12.0 0.00 0.00 0.00
20201026233032 46 205 10.0 14.0 0.00 0.00 0.00
20201026232526 46 201 10.0 12.0 0.00 0.00 0.00
20201026232025 45 190 10.0 13.0 0.00 0.00 0.00
20201026231537 46 207 9.0 12.0 0.00 0.00 0.00
20201026231024 45 194 9.0 12.0 0.00 0.00 0.00
20201026230525 45 203 9.0 13.0 0.00 0.00 0.00
20201026230034 46 203 10.0 14.0 0.00 0.00 0.00
20201026225525 46 188 9.0 12.0 0.00 0.00 1.30
20201026225027 46 211 9.0 11.0 0.00 0.00 1.30
20201026224545 46 205 9.0 12.0 0.00 0.00 1.30
20201026224024 46 195 9.0 10.0 0.00 0.00 1.30
20201026223520 46 210 10.0 12.0 0.00 0.00 1.30
20201026223027 45 190 9.0 13.0 0.00 0.00 1.30
20201026222524 45 195 10.0 13.0 0.00 0.00 1.30
20201026222020 46 181 10.0 13.0 0.00 0.00 1.30
20201026221532 46 183 10.0 13.0 0.00 0.00 1.30
20201026221033 46 187 10.0 12.0 0.00 0.00 1.30
20201026220522 46 210 10.0 13.0 0.00 0.00 1.30
20201026220024 46 194 9.0 12.0 0.00 0.00 1.30
20201026215521 46 167 10.0 13.0 0.00 0.00 1.30
20201026215022 46 212 10.0 12.0 0.00 0.00 1.30
20201026214520 46 201 10.0 12.0 0.00 0.00 1.30
20201026214023 46 184 11.0 14.0 0.00 0.00 1.30
20201026213515 46 184 11.0 15.0 0.00 0.00 1.30
20201026213021 46 205 10.0 13.0 0.00 0.00 1.30
20201026212526 46 207 10.0 14.0 0.00 0.00 1.30
20201026212019 46 183 10.0 13.0 0.00 0.00 1.30
20201026211635 46 201 11.0 13.0 0.00 0.00 1.30
20201026211527 46 201 11.0 13.0 0.00 0.00 1.30
20201026211021 46 203 11.0 14.0 0.00 0.00 1.30
20201026210530 47 208 11.0 15.0 0.00 0.00 1.30
20201026210023 46 195 11.0 15.0 0.00 0.00 1.30
20201026205524 47 187 12.0 15.0 0.00 0.00 1.30
20201026205027 47 207 12.0 17.0 0.00 0.00 1.30
20201026204512 46 221 13.0 18.0 0.00 0.00 1.30
20201026204035 46 191 12.0 16.0 0.00 0.00 1.30
20201026203511 46 200 11.0 14.0 0.00 0.00 1.30
20201026203033 46 198 12.0 16.0 0.00 0.00 1.30
20201026202510 47 187 11.0 15.0 0.00 0.00 1.30
20201026202020 46 181 11.0 15.0 0.00 0.00 1.30
20201026201522 46 188 10.0 15.0 0.00 0.00 1.30
20201026201010 46 181 10.0 14.0 0.00 0.00 1.30
20201026200514 46 187 9.0 13.0 0.00 0.00 1.30
20201026200046 46 150 10.0 13.0 0.00 0.00 1.30
20201026195510 47 170 10.0 12.0 0.00 0.00 1.30
20201026195010 46 184 10.0 14.0 0.00 0.00 1.30
20201026194522 46 166 11.0 16.0 0.00 0.00 1.30
20201026194012 47 210 10.0 15.0 0.00 0.00 1.30
20201026193509 46 177 11.0 14.0 0.00 0.00 1.30
20201026193026 47 165 11.0 14.0 0.00 0.00 1.30
20201026192507 46 169 10.0 14.0 0.00 0.00 1.30
20201026192038 46 208 10.0 12.0 0.00 0.00 1.30
20201026191528 46 188 10.0 13.0 0.00 0.00 1.30
20201026191027 47 159 9.0 16.0 0.00 0.00 1.30
20201026190505 47 179 10.0 12.0 0.00 0.00 1.30
20201026190019 46 179 9.0 12.0 0.00 0.00 1.30
20201026185500 46 165 9.0 12.0 0.00 0.00 1.30
20201026185000 46 180 11.0 16.0 0.00 0.00 1.30
20201026184459 46 184 11.0 14.0 0.00 0.00 1.30
20201026183959 46 193 10.0 13.0 0.00 0.00 1.30
20201026183459 46 177 11.0 16.0 0.00 0.00 1.20
20201026183000 47 221 11.0 28.0 0.00 0.00 1.20
20201026182459 47 208 9.0 16.0 0.00 0.00 1.20
20201026182007 47 194 10.0 14.0 0.00 0.00 1.20
20201026181500 47 172 10.0 13.0 0.00 0.00 1.20
20201026180957 47 207 10.0 13.0 0.00 0.00 1.20
20201026180500 46 205 10.0 13.0 0.00 0.00 1.20
20201026175955 46 197 10.0 13.0 0.00 0.00 1.20
20201026175454 45 190 8.0 10.0 0.00 0.00 1.20
20201026174958 45 210 9.0 11.0 0.00 0.00 1.20
20201026174453 46 198 9.0 11.0 0.00 0.00 1.20
20201026173959 46 208 9.0 12.0 0.00 0.00 1.20
20201026173454 46 222 10.0 13.0 0.00 0.00 1.20
20201026172952 46 200 10.0 14.0 0.00 0.00 1.20
20201026172452 46 187 9.0 12.0 0.00 0.00 1.20
20201026171952 45 197 8.0 11.0 0.00 0.00 1.20
20201026171453 45 210 8.0 10.0 0.00 0.00 1.20
20201026170957 45 186 8.0 10.0 0.00 0.00 1.20
20201026170451 46 205 8.0 11.0 0.00 0.00 1.20
20201026165950 46 210 9.0 13.0 0.00 0.00 1.20
20201026165500 46 260 10.0 14.0 0.00 0.00 1.20
20201026164950 47 271 11.0 20.0 0.00 0.00 1.20
20201026164453 47 229 9.0 17.0 0.00 0.00 0.70
20201026163949 47 285 8.0 15.0 0.00 0.00 0.60
20201026163454 49 305 9.0 23.0 0.00 0.00 0.30
20201026162949 50 204 10.0 15.0 0.00 0.00 0.10
20201026162448 50 215 10.0 13.0 0.00 0.00 0.10
20201026161950 51 207 10.0 12.0 0.00 0.00 0.10
20201026161448 50 222 10.0 13.0 0.00 0.00 0.10
20201026160947 50 221 9.0 12.0 0.00 0.00 0.10
20201026160444 50 224 8.0 11.0 0.00 0.00 0.10
20201026155940 51 219 9.0 11.0 0.00 0.00 0.10
20201026155440 50 203 10.0 12.0 0.00 0.00 0.10
20201026154941 51 215 10.0 14.0 0.00 0.00 0.10
20201026154441 52 188 11.0 13.0 0.00 0.00 0.10
20201026153939 51 204 11.0 14.0 0.00 0.00 0.10
20201026153439 51 188 10.0 14.0 0.00 0.00 0.10
20201026152941 51 194 10.0 13.0 0.00 0.00 0.10
20201026152439 51 218 11.0 15.0 0.00 0.00 0.10
20201026151943 51 233 11.0 17.0 0.00 0.00 0.10
20201026151439 51 218 11.0 16.0 0.00 0.00 0.10
20201026150936 51 210 12.0 20.0 0.00 0.00 0.10
20201026150435 50 208 12.0 19.0 0.00 0.00 0.10
20201026145933 51 210 13.0 17.0 0.00 0.00 0.10
20201026145435 51 212 12.0 19.0 0.00 0.00 0.10
20201026144945 51 210 12.0 16.0 0.00 0.00 0.10
20201026144433 51 218 11.0 17.0 0.00 0.00 0.10
20201026143936 52 201 13.0 20.0 0.00 0.00 0.10
20201026143432 51 201 13.0 21.0 0.00 0.00 0.10
20201026142936 52 224 14.0 20.0 0.00 0.00 0.10
20201026142434 52 198 14.0 19.0 0.00 0.00 0.10
20201026141934 51 239 12.0 16.0 0.00 0.00 0.10
20201026141431 52 225 13.0 20.0 0.00 0.00 0.10
20201026140931 52 214 12.0 17.0 0.00 0.00 0.10
20201026140434 52 222 13.0 21.0 0.00 0.00 0.10
20201026135930 51 222 13.0 20.0 0.00 0.00 0.10
20201026135430 51 214 14.0 22.0 0.00 0.00 0.10
20201026134931 51 224 15.0 24.0 0.00 0.00 0.10
20201026134429 51 215 13.0 22.0 0.00 0.00 0.10
20201026133929 51 214 14.0 22.0 0.00 0.00 0.10
20201026133427 51 229 15.0 21.0 0.00 0.00 0.10
20201026132928 51 218 14.0 23.0 0.00 0.00 0.10
20201026132433 52 232 13.0 21.0 0.00 0.00 0.10
20201026131925 52 212 14.0 21.0 0.00 0.00 0.10
20201026131425 51 248 17.0 25.0 0.00 0.00 0.10
20201026130925 52 204 17.0 26.0 0.00 0.00 0.10
20201026130426 52 229 15.0 24.0 0.00 0.00 0.10
20201026125924 52 211 20.0 28.0 0.00 0.00 0.10
20201026125420 52 217 16.0 28.0 0.00 0.00 0.10